ID Time Temp Humidity Light PM2.5 PM10 Voltage Extra Firmware Position Fcnt Gateways Distance RSSI LSNR Radiosettings
93 2020-01-20 20:50:13 4.125°C 90.0625% 3.3V v1 52.1997 / 5.40973 21130 Meetjestad #4 (De Koperhorst) 3.671km -121 -7.5 868.1Mhz, SF9BW125, 4/5CR
Meetjestad #1 (De WAR) 4.676km -119 -13.5 868.1Mhz, SF9BW125, 4/5CR
93 2020-01-20 20:33:49 4.1875°C 89.375% 3.3V v1 52.1997 / 5.40973 21129 Meetjestad #4 (De Koperhorst) 3.671km -119 -8.5 867.5Mhz, SF9BW125, 4/5CR
93 2020-01-20 20:17:25 4.375°C 88.625% 3.31V v1 52.1997 / 5.40973 21128 Meetjestad #4 (De Koperhorst) 3.671km -115 -10.25 868.5Mhz, SF9BW125, 4/5CR
93 2020-01-20 20:01:01 4.625°C 87.5625% 3.3V v1 52.1997 / 5.40973 21127 Meetjestad #4 (De Koperhorst) 3.671km -120 -7.5 867.3Mhz, SF9BW125, 4/5CR
Meetjestad #3 (Berghotel) 6.958km -117 -12.25 867.3Mhz, SF9BW125, 4/5CR
Meetjestad #1 (De WAR) 4.676km -120 -12.5 867.3Mhz, SF9BW125, 4/5CR
eui-b827ebfffe710b30 - -105 -13.5 867.3Mhz, SF9BW125, 4/5CR
93 2020-01-20 19:11:49 5.25°C 86% 3.3V v1 52.1997 / 5.40973 21124 Meetjestad #1 (De WAR) 4.676km -120 -12.5 868.1Mhz, SF9BW125, 4/5CR
eui-b827ebfffe710b30 - -105 -14.2 868.1Mhz, SF9BW125, 4/5CR
93 2020-01-20 18:55:24 5.3125°C 85.875% 3.3V v1 52.1997 / 5.40973 21123 Meetjestad #4 (De Koperhorst) 3.671km -120 -8.75 867.9Mhz, SF9BW125, 4/5CR
93 2020-01-20 18:22:36 5.3125°C 85.875% 3.3V v1 52.1997 / 5.40973 21121 Meetjestad #4 (De Koperhorst) 3.671km -120 -5 867.7Mhz, SF9BW125, 4/5CR
Meetjestad #3 (Berghotel) 6.958km -115 -12.75 867.7Mhz, SF9BW125, 4/5CR
93 2020-01-20 18:06:59 5.25°C 85.8125% 3.3V v1 52.1997 / 5.40973 21120 Meetjestad #3 (Berghotel) 6.958km -115 -14.75 868.3Mhz, SF12BW125, 4/5CR
eui-b827ebfffe710b30 - -108 -15.8 868.3Mhz, SF12BW125, 4/5CR
93 2020-01-20 17:49:51 5.4375°C 85.125% 3.3V v1 52.1998 / 5.4097 21119 eui-b827ebfffe710b30 - -107 -12.8 867.5Mhz, SF9BW125, 4/5CR
Meetjestad #4 (De Koperhorst) 3.68km -117 -13 867.5Mhz, SF9BW125, 4/5CR
Meetjestad #3 (Berghotel) 6.967km -114 -13.75 867.5Mhz, SF9BW125, 4/5CR
93 2020-01-20 17:17:03 5.875°C 83.75% 3.3V v1 52.1998 / 5.4097 21117 Meetjestad #4 (De Koperhorst) 3.68km -118 -9 867.3Mhz, SF9BW125, 4/5CR
Meetjestad #3 (Berghotel) 6.967km -115 -13.75 867.3Mhz, SF9BW125, 4/5CR
93 2020-01-20 16:44:14 6.25°C 83% 3.3V v1 52.1998 / 5.4097 21115 Meetjestad #4 (De Koperhorst) 3.68km -121 -11.5 867.1Mhz, SF9BW125, 4/5CR
93 2020-01-20 15:55:00 6.5°C 82.875% 3.3V v1 52.1998 / 5.4097 21112 Meetjestad #4 (De Koperhorst) 3.68km -119 -11.25 868.1Mhz, SF9BW125, 4/5CR
93 2020-01-20 15:38:35 6.5°C 82.375% 3.3V v1 52.1998 / 5.4097 21111 Meetjestad #4 (De Koperhorst) 3.68km -120 -4.5 867.7Mhz, SF9BW125, 4/5CR
93 2020-01-20 15:05:46 6.5°C 81.75% 3.3V v1 52.1998 / 5.4097 21109 Meetjestad #3 (Berghotel) 6.967km -117 -11.75 867.5Mhz, SF9BW125, 4/5CR
93 2020-01-20 14:49:22 6.5625°C 81.5625% 3.3V v1 52.1998 / 5.4097 21108 Meetjestad #4 (De Koperhorst) 3.68km -114 -9 868.3Mhz, SF9BW125, 4/5CR
93 2020-01-20 14:32:57 6.625°C 81.875% 3.3V v1 52.1998 / 5.4097 21107 Meetjestad #4 (De Koperhorst) 3.68km -119 -9.5 867.3Mhz, SF9BW125, 4/5CR
93 2020-01-20 14:16:32 6.6875°C 81.75% 3.3V v1 52.1998 / 5.4097 21106 Meetjestad #4 (De Koperhorst) 3.68km -121 -10.75 868.1Mhz, SF9BW125, 4/5CR
93 2020-01-20 14:00:08 6.75°C 81.75% 3.31V v1 52.1998 / 5.4097 21105 Meetjestad #4 (De Koperhorst) 3.68km -121 -10.75 867.1Mhz, SF9BW125, 4/5CR
93 2020-01-20 13:27:18 6.6875°C 82.25% 3.3V v1 52.1998 / 5.4097 21103 eui-b827ebfffe710b30 - -107 -12.5 867.9Mhz, SF9BW125, 4/5CR
93 2020-01-20 13:10:54 6.375°C 84.125% 3.3V v1 52.1998 / 5.4097 21102 Meetjestad #4 (De Koperhorst) 3.68km -117 -11 868.3Mhz, SF9BW125, 4/5CR
93 2020-01-20 12:54:29 6.0625°C 85.8125% 3.3V v1 52.1998 / 5.4097 21101 Meetjestad #4 (De Koperhorst) 3.68km -118 -4.75 867.7Mhz, SF9BW125, 4/5CR
93 2020-01-20 12:38:05 6°C 87.6875% 3.3V v1 52.1998 / 5.4097 21100 Meetjestad #4 (De Koperhorst) 3.68km -120 -8 868.1Mhz, SF9BW125, 4/5CR
93 2020-01-20 11:48:52 5.375°C 92.6875% 3.3V v1 52.1998 / 5.4097 21097 Meetjestad #4 (De Koperhorst) 3.68km -119 -9.5 867.3Mhz, SF9BW125, 4/5CR
93 2020-01-20 11:16:03 4.75°C 95.3125% 3.3V v1 52.1998 / 5.4097 21095 Meetjestad #4 (De Koperhorst) 3.68km -120 -9.5 867.1Mhz, SF9BW125, 4/5CR
Meetjestad #3 (Berghotel) 6.967km -115 -14 867.1Mhz, SF9BW125, 4/5CR
93 2020-01-20 10:59:39 4.4375°C 95.8125% 3.3V v1 52.1998 / 5.4097 21094 Meetjestad #4 (De Koperhorst) 3.68km -114 -10.25 868.1Mhz, SF9BW125, 4/5CR
93 2020-01-20 10:43:15 4.1875°C 96% 3.31V v1 52.1998 / 5.4097 21093 Meetjestad #4 (De Koperhorst) 3.68km -120 -8.75 867.9Mhz, SF9BW125, 4/5CR
93 2020-01-20 10:10:28 3.8125°C 96.8125% 3.31V v1 52.1998 / 5.4097 21091 Meetjestad #4 (De Koperhorst) 3.68km -119 -4.75 867.7Mhz, SF9BW125, 4/5CR
eui-0000024b080e0ffd 24.118km -118 -11.8 867.7Mhz, SF9BW125, 4/5CR
Meetjestad #3 (Berghotel) 6.967km -117 -12.5 867.7Mhz, SF9BW125, 4/5CR
93 2020-01-20 09:54:04 3.625°C 97.25% 3.3V v1 52.1998 / 5.4097 21090 Meetjestad #4 (De Koperhorst) 3.68km -119 -12.5 868.3Mhz, SF9BW125, 4/5CR
93 2020-01-20 09:21:16 3.3125°C 97.5625% 3.31V v1 52.1998 / 5.4097 21088 Meetjestad #4 (De Koperhorst) 3.68km -120 -6.5 868.1Mhz, SF9BW125, 4/5CR
Meetjestad #1 (De WAR) 4.684km -121 -12.75 868.1Mhz, SF9BW125, 4/5CR
93 2020-01-20 09:04:52 3.1875°C 97.375% 3.3V v1 52.1998 / 5.4097 21087 Meetjestad #4 (De Koperhorst) 3.68km -120 -4.25 867.3Mhz, SF9BW125, 4/5CR
93 2020-01-20 08:48:28 3.125°C 97.25% 3.3V v1 52.1998 / 5.4097 21086 Meetjestad #4 (De Koperhorst) 3.68km -114 -11.25 868.5Mhz, SF9BW125, 4/5CR
eui-b827ebfffe710b30 - -107 -12.8 868.5Mhz, SF9BW125, 4/5CR
93 2020-01-20 07:59:18 2.875°C 96.75% 3.31V v1 52.1998 / 5.4097 21083 Meetjestad #4 (De Koperhorst) 3.68km -118 -2.25 867.9Mhz, SF9BW125, 4/5CR
eui-0000024b080e0ffd 24.118km -120 -13.8 867.9Mhz, SF9BW125, 4/5CR
93 2020-01-20 07:42:54 2.6875°C 96.5625% 3.31V v1 52.1998 / 5.4097 21082 Meetjestad #4 (De Koperhorst) 3.68km -120 -6.75 868.1Mhz, SF9BW125, 4/5CR
93 2020-01-20 07:26:30 2.6875°C 96.5625% 3.3V v1 52.1998 / 5.4097 21081 Meetjestad #4 (De Koperhorst) 3.68km -119 0.5 867.7Mhz, SF9BW125, 4/5CR
Meetjestad #3 (Berghotel) 6.967km -115 -12.75 867.7Mhz, SF9BW125, 4/5CR
93 2020-01-20 06:53:43 2.5625°C 96.5625% 3.31V v1 52.1998 / 5.4097 21079 Meetjestad #4 (De Koperhorst) 3.68km -118 -9.25 867.5Mhz, SF9BW125, 4/5CR
93 2020-01-20 06:04:33 2.4375°C 96.5625% 3.3V v1 52.1998 / 5.4097 21076 Meetjestad #4 (De Koperhorst) 3.68km -118 -5.75 868.1Mhz, SF9BW125, 4/5CR
93 2020-01-20 05:48:09 2.1875°C 96.25% 3.3V v1 52.1998 / 5.4097 21075 Meetjestad #4 (De Koperhorst) 3.68km -121 -8.5 867.1Mhz, SF9BW125, 4/5CR
93 2020-01-20 05:15:22 2.0625°C 96.3125% 3.3V v1 52.1998 / 5.4097 21073 Meetjestad #4 (De Koperhorst) 3.68km -118 -3.25 867.9Mhz, SF9BW125, 4/5CR
93 2020-01-20 04:58:59 1.875°C 95.9375% 3.31V v1 52.1998 / 5.4097 21072 Meetjestad #4 (De Koperhorst) 3.68km -117 -10.75 868.3Mhz, SF9BW125, 4/5CR
93 2020-01-20 04:42:35 1.6875°C 95.6875% 3.31V v1 52.1998 / 5.4097 21071 Meetjestad #4 (De Koperhorst) 3.68km -118 -0.75 867.7Mhz, SF9BW125, 4/5CR
Meetjestad #3 (Berghotel) 6.967km -114 -12.25 867.7Mhz, SF9BW125, 4/5CR
93 2020-01-20 04:26:12 1.5°C 95.1875% 3.3V v1 52.1998 / 5.4097 21070 Meetjestad #4 (De Koperhorst) 3.68km -120 -7.75 868.1Mhz, SF9BW125, 4/5CR
93 2020-01-20 04:09:49 1.3125°C 94.75% 3.3V v1 52.1998 / 5.4097 21069 Meetjestad #4 (De Koperhorst) 3.68km -114 -6.5 867.5Mhz, SF9BW125, 4/5CR
93 2020-01-20 03:37:02 1.1875°C 94.875% 3.3V v1 52.1998 / 5.4097 21067 Meetjestad #4 (De Koperhorst) 3.68km -119 -5.75 867.3Mhz, SF9BW125, 4/5CR
Meetjestad #3 (Berghotel) 6.967km -119 -12.25 867.3Mhz, SF9BW125, 4/5CR
93 2020-01-20 03:04:16 0.8125°C 94.4375% 3.3V v1 52.1998 / 5.4097 21065 Meetjestad #4 (De Koperhorst) 3.68km -121 -9 867.1Mhz, SF9BW125, 4/5CR
Meetjestad #3 (Berghotel) 6.967km -114 -12.5 867.1Mhz, SF9BW125, 4/5CR
93 2020-01-20 02:47:53 0.625°C 94.0625% 3.3V v1 52.1998 / 5.4097 21064 Meetjestad #4 (De Koperhorst) 3.68km -121 -5 868.1Mhz, SF9BW125, 4/5CR
93 2020-01-20 02:31:30 0.5°C 93.375% 3.31V v1 52.1998 / 5.4097 21063 Meetjestad #4 (De Koperhorst) 3.68km -118 -3 867.9Mhz, SF9BW125, 4/5CR
Meetjestad #3 (Berghotel) 6.967km -118 -14.25 867.9Mhz, SF9BW125, 4/5CR
93 2020-01-20 01:58:43 0.6875°C 92.5625% 3.31V v1 52.1998 / 5.4097 21061 Meetjestad #4 (De Koperhorst) 3.68km -118 0.25 867.7Mhz, SF9BW125, 4/5CR
Meetjestad #3 (Berghotel) 6.967km -118 -12 867.7Mhz, SF9BW125, 4/5CR
eui-0000024b080e0ffd 24.12km -120 -13.5 867.7Mhz, SF9BW125, 4/5CR
93 2020-01-20 01:42:20 0.75°C 92.1875% 3.31V v1 52.1998 / 5.4097 21060 Meetjestad #4 (De Koperhorst) 3.68km -118 -12 868.3Mhz, SF9BW125, 4/5CR
93 2020-01-20 01:25:57 1.25°C 93.3125% 3.3V v1 52.1998 / 5.4097 21059 Meetjestad #4 (De Koperhorst) 3.68km -117 -9 867.5Mhz, SF9BW125, 4/5CR
Meetjestad #3 (Berghotel) 6.967km -117 -11.75 867.5Mhz, SF9BW125, 4/5CR
93 2020-01-20 01:09:34 1°C 91.5% 3.31V v1 52.1998 / 5.4097 21058 Meetjestad #4 (De Koperhorst) 3.68km -119 -4 868.1Mhz, SF9BW125, 4/5CR

Message count: 50

Node count: 1

Messages per node

Number of messages in list aboveNodes
5093

Statistics per gateway

GatewayNumber of messagesNumber of nodesNodes
Meetjestad #4 (De Koperhorst) (filter)46193 (3.68km)
Meetjestad #3 (Berghotel) (filter)15193 (6.967km)
eui-b827ebfffe710b30 (filter)6193
Meetjestad #1 (De WAR) (filter)4193 (4.684km)
eui-0000024b080e0ffd (filter)3193 (24.12km)

Filter by dataset